Time;durP1;ratioP1;P1;durP2;ratioP2;P2;SDS_P1;SDS_P2;PMS_P1;PMS_P2;Temp;Humidity;BMP_temperature;BMP_pressure;BME280_temperature;BME280_humidity;BME280_pressure;Samples;Min_cycle;Max_cycle;Signal;HPM_P1;HPM_P2
2022/07/18 00:01:02;;;;;;;2.13;1.10;;;20.40;78.20;;;;;;5095880;28;20573;-94
2022/07/18 00:03:27;;;;;;;1.23;1.13;;;20.40;78.60;;;;;;5095050;28;20175;-94
2022/07/18 00:05:53;;;;;;;5.17;1.33;;;20.30;78.80;;;;;;5094755;28;20780;-92
2022/07/18 00:08:19;;;;;;;4.03;1.30;;;20.30;79.10;;;;;;5095022;28;20236;-94
2022/07/18 00:10:45;;;;;;;2.40;1.57;;;20.20;79.10;;;;;;5097669;28;20511;-92
2022/07/18 00:13:11;;;;;;;3.03;1.20;;;20.20;79.30;;;;;;5094647;28;20203;-95
2022/07/18 00:15:37;;;;;;;5.50;1.10;;;20.20;79.70;;;;;;5094679;28;20186;-93
2022/07/18 00:18:03;;;;;;;2.53;1.20;;;20.10;79.80;;;;;;5094525;28;20234;-94
2022/07/18 00:20:29;;;;;;;1.67;1.40;;;20.10;79.80;;;;;;5094531;28;20412;-93
2022/07/18 00:22:55;;;;;;;3.47;1.13;;;20.00;80.10;;;;;;5098130;28;20539;-94
2022/07/18 00:25:21;;;;;;;4.20;1.10;;;20.00;80.30;;;;;;5095628;28;20948;-94
2022/07/18 00:27:47;;;;;;;3.90;1.40;;;19.90;80.10;;;;;;5095600;28;20443;-94
2022/07/18 00:30:13;;;;;;;2.00;1.20;;;19.90;80.20;;;;;;5094433;28;20411;-93
2022/07/18 00:32:39;;;;;;;1.30;1.20;;;19.90;80.40;;;;;;5094650;28;20203;-94
2022/07/18 00:35:05;;;;;;;1.73;1.03;;;19.80;80.60;;;;;;5097412;28;20408;-94
2022/07/18 00:37:31;;;;;;;11.67;1.30;;;19.80;80.50;;;;;;5094015;28;20484;-94
2022/07/18 00:39:56;;;;;;;2.00;1.30;;;19.80;80.50;;;;;;5094480;28;20440;-91
2022/07/18 00:42:22;;;;;;;3.57;1.57;;;19.70;80.40;;;;;;5095167;28;20203;-95
2022/07/18 00:44:55;;;;;;;4.97;1.40;;;19.70;80.50;;;;;;5095383;28;20184;-93
2022/07/18 00:47:21;;;;;;;2.73;1.37;;;19.70;81.20;;;;;;5097071;28;20231;-94
2022/07/18 00:49:47;;;;;;;2.60;1.50;;;19.60;80.40;;;;;;5096046;28;20511;-93
2022/07/18 00:52:13;;;;;;;2.57;1.27;;;19.60;80.40;;;;;;5096509;28;20463;-95
2022/07/18 00:54:39;;;;;;;5.70;1.30;;;19.60;80.30;;;;;;5095491;28;20207;-93
2022/07/18 00:57:05;;;;;;;2.30;1.10;;;19.50;80.30;;;;;;5093733;28;20473;-95
2022/07/18 01:02:15;;;;;;;3.83;1.47;;;19.50;80.30;;;;;;5095367;28;20214;-94
2022/07/18 01:04:41;;;;;;;6.63;1.80;;;19.40;80.30;;;;;;5093694;28;20427;-93
2022/07/18 01:07:07;;;;;;;3.23;1.67;;;19.40;80.40;;;;;;5093479;28;20231;-93
2022/07/18 01:09:33;;;;;;;1.57;1.43;;;19.30;80.60;;;;;;5093978;28;20955;-93
2022/07/18 01:11:59;;;;;;;1.53;1.43;;;19.30;80.80;;;;;;5096818;28;20423;-95
2022/07/18 01:14:26;;;;;;;2.87;1.80;;;19.20;80.60;;;;;;5094114;28;20178;-94
2022/07/18 01:16:52;;;;;;;3.83;1.60;;;19.20;81.00;;;;;;5093865;28;20479;-94
2022/07/18 01:19:18;;;;;;;2.43;1.87;;;19.10;81.20;;;;;;5094026;28;20415;-94
2022/07/18 01:21:43;;;;;;;1.90;1.57;;;19.10;81.10;;;;;;5093954;28;20206;-94
2022/07/18 01:24:09;;;;;;;1.97;1.30;;;19.00;81.00;;;;;;5096464;28;20620;-94
2022/07/18 01:26:36;;;;;;;1.40;1.30;;;19.00;81.10;;;;;;5097693;28;20710;-93
2022/07/18 01:29:03;;;;;;;5.97;1.70;;;18.90;81.40;;;;;;5094392;28;20273;-93
2022/07/18 01:31:33;;;;;;;2.37;1.40;;;18.90;81.40;;;;;;5093741;28;20445;-94
2022/07/18 01:34:00;;;;;;;4.40;2.07;;;18.90;81.90;;;;;;5095355;28;20417;-94
2022/07/18 01:36:25;;;;;;;3.17;1.60;;;18.80;81.80;;;;;;5093810;28;20822;-95
2022/07/18 01:38:51;;;;;;;4.70;1.40;;;18.80;81.80;;;;;;5097021;28;20414;-93
2022/07/18 01:41:17;;;;;;;5.30;1.57;;;18.80;82.30;;;;;;5094631;28;20261;-94
2022/07/18 01:43:43;;;;;;;2.10;1.30;;;18.70;82.10;;;;;;5093837;28;20499;-96
2022/07/18 01:46:10;;;;;;;1.87;1.30;;;18.70;82.00;;;;;;5093653;28;20177;-95
2022/07/18 01:48:40;;;;;;;7.13;1.93;;;18.70;82.40;;;;;;5095274;28;20421;-95
2022/07/18 01:51:10;;;;;;;2.37;1.20;;;18.60;82.60;;;;;;5095744;28;20425;-95
2022/07/18 01:53:37;;;;;;;4.23;1.70;;;18.60;82.90;;;;;;5094066;28;20417;-94
2022/07/18 01:56:04;;;;;;;4.80;1.67;;;18.60;83.20;;;;;;5094425;28;20420;-94
2022/07/18 01:58:30;;;;;;;2.57;1.40;;;18.50;83.30;;;;;;5093741;28;20421;-94
2022/07/18 02:00:55;;;;;;;3.67;1.33;;;18.50;83.50;;;;;;5078477;28;20414;-94
2022/07/18 02:03:21;;;;;;;2.10;1.30;;;18.50;83.50;;;;;;5094714;28;20197;-93
2022/07/18 02:05:47;;;;;;;3.90;1.77;;;18.50;83.60;;;;;;5093249;28;20188;-92
2022/07/18 02:08:12;;;;;;;2.07;1.27;;;18.50;83.80;;;;;;5094527;28;20271;-93
2022/07/18 02:10:38;;;;;;;3.97;1.27;;;18.50;83.80;;;;;;5093298;28;20198;-93
2022/07/18 02:13:05;;;;;;;2.70;1.40;;;18.40;84.10;;;;;;5093181;28;20197;-94
2022/07/18 02:15:30;;;;;;;6.07;1.67;;;18.40;83.90;;;;;;5097221;28;20405;-94
2022/07/18 02:17:57;;;;;;;3.80;1.47;;;18.40;84.00;;;;;;5097174;28;20564;-93
2022/07/18 02:20:23;;;;;;;1.63;1.23;;;18.40;84.10;;;;;;5096945;28;20650;-95
2022/07/18 02:22:49;;;;;;;2.57;1.77;;;18.40;84.30;;;;;;5097970;28;20486;-94
2022/07/18 02:25:14;;;;;;;5.17;1.57;;;18.40;84.30;;;;;;5080013;28;20406;-92
2022/07/18 02:27:41;;;;;;;4.13;2.30;;;18.30;84.40;;;;;;5101021;28;20678;-93
2022/07/18 02:30:08;;;;;;;5.10;1.37;;;18.30;84.60;;;;;;5100038;28;20185;-93
2022/07/18 02:32:36;;;;;;;2.30;1.47;;;18.30;84.90;;;;;;5100564;28;20445;-94
2022/07/18 02:35:04;;;;;;;2.83;1.50;;;18.20;84.60;;;;;;5099027;28;20417;-94
2022/07/18 02:37:30;;;;;;;2.57;1.30;;;18.20;84.60;;;;;;5097502;28;20504;-95
2022/07/18 02:39:55;;;;;;;2.80;1.50;;;18.10;84.80;;;;;;5102102;28;20413;-93
2022/07/18 02:42:21;;;;;;;2.53;1.70;;;18.10;84.90;;;;;;5097806;28;20200;-94
2022/07/18 02:44:47;;;;;;;3.43;1.53;;;18.00;85.00;;;;;;5096473;28;20189;-93
2022/07/18 02:47:13;;;;;;;1.40;1.30;;;18.00;85.20;;;;;;5096254;28;20200;-94
2022/07/18 02:49:39;;;;;;;4.33;1.53;;;18.00;85.50;;;;;;5096541;28;20588;-93
2022/07/18 02:52:07;;;;;;;1.43;1.33;;;18.00;85.60;;;;;;5098488;28;20288;-94
2022/07/18 02:54:35;;;;;;;3.33;1.57;;;17.90;85.80;;;;;;5096029;28;20413;-95
2022/07/18 02:57:01;;;;;;;7.60;1.70;;;17.90;85.90;;;;;;5096085;28;20508;-95
2022/07/18 02:59:27;;;;;;;2.10;1.20;;;17.90;86.10;;;;;;5096200;28;20417;-94
2022/07/18 03:01:54;;;;;;;5.70;1.90;;;17.90;86.00;;;;;;5095898;28;20441;-94
2022/07/18 03:04:20;;;;;;;2.00;1.10;;;17.80;86.00;;;;;;5096342;28;20458;-93
2022/07/18 03:06:48;;;;;;;2.87;1.40;;;17.80;86.10;;;;;;5098668;28;20445;-93
2022/07/18 03:09:15;;;;;;;1.73;1.37;;;17.80;86.80;;;;;;5096296;28;20474;-93
2022/07/18 03:11:41;;;;;;;2.63;1.90;;;17.80;86.00;;;;;;5102498;28;20444;-95
2022/07/18 03:14:07;;;;;;;2.70;1.57;;;17.90;85.90;;;;;;5101083;28;20478;-94
2022/07/18 03:16:33;;;;;;;3.63;1.40;;;17.90;85.70;;;;;;5098776;28;20228;-94
2022/07/18 03:18:58;;;;;;;1.40;1.10;;;17.90;85.70;;;;;;5097686;28;20182;-94
2022/07/18 03:21:24;;;;;;;5.53;1.67;;;17.80;86.00;;;;;;5095940;28;20199;-94
2022/07/18 03:23:50;;;;;;;7.57;1.93;;;17.80;86.10;;;;;;5095916;28;20180;-95
2022/07/18 03:26:16;;;;;;;1.93;1.47;;;17.70;86.20;;;;;;5096715;28;20180;-94
2022/07/18 03:28:41;;;;;;;4.00;1.50;;;17.80;86.00;;;;;;5099387;28;20541;-94
2022/07/18 03:31:07;;;;;;;5.20;2.10;;;17.70;85.80;;;;;;5103106;28;20183;-94
2022/07/18 03:33:33;;;;;;;8.33;1.80;;;17.70;85.90;;;;;;5098091;28;20225;-94
2022/07/18 03:35:59;;;;;;;2.03;1.50;;;17.70;86.00;;;;;;5095327;28;20534;-94
2022/07/18 03:38:25;;;;;;;4.97;1.70;;;17.60;86.00;;;;;;5095590;28;20571;-94
2022/07/18 03:40:50;;;;;;;4.13;1.37;;;17.60;86.30;;;;;;5095344;28;20462;-93
2022/07/18 03:43:16;;;;;;;3.27;1.43;;;17.50;86.40;;;;;;5095633;28;20460;-95
2022/07/18 03:45:42;;;;;;;5.67;2.80;;;17.50;86.60;;;;;;5097486;28;20208;-93
2022/07/18 03:48:08;;;;;;;2.90;2.20;;;17.50;86.90;;;;;;5095199;28;20441;-94
2022/07/18 03:50:33;;;;;;;3.87;2.00;;;17.50;87.10;;;;;;5095052;28;20229;-94
2022/07/18 03:53:00;;;;;;;2.50;2.20;;;17.50;86.80;;;;;;5094693;28;20598;-94
2022/07/18 03:55:26;;;;;;;4.33;2.50;;;17.60;86.80;;;;;;5098077;28;20176;-93
2022/07/18 03:57:52;;;;;;;3.43;2.20;;;17.60;86.80;;;;;;5098872;28;20483;-95
2022/07/18 04:00:18;;;;;;;4.17;1.57;;;17.60;86.60;;;;;;5116373;28;20495;-93
2022/07/18 04:02:47;;;;;;;2.70;1.70;;;17.60;86.50;;;;;;5109358;28;20219;-94
2022/07/18 04:05:13;;;;;;;4.60;2.13;;;17.60;86.20;;;;;;5094900;28;20787;-94
2022/07/18 04:07:39;;;;;;;5.40;2.07;;;17.70;86.40;;;;;;5094486;28;20515;-94
2022/07/18 04:10:07;;;;;;;3.97;1.70;;;17.70;86.60;;;;;;5097846;28;20420;-94
2022/07/18 04:12:32;;;;;;;18.97;7.97;;;17.70;86.70;;;;;;5095129;28;21012;-94
2022/07/18 04:14:58;;;;;;;103.63;44.77;;;17.70;86.90;;;;;;5099419;28;20443;-94
2022/07/18 04:17:24;;;;;;;5.47;3.37;;;17.70;87.00;;;;;;5095000;28;20334;-94
2022/07/18 04:19:51;;;;;;;3.57;2.30;;;17.80;86.80;;;;;;5094487;28;20445;-94
2022/07/18 04:22:16;;;;;;;4.37;2.90;;;17.80;86.60;;;;;;5099475;28;20196;-93
2022/07/18 04:24:42;;;;;;;3.77;2.97;;;17.90;86.90;;;;;;5095783;28;20944;-93
2022/07/18 04:27:08;;;;;;;2.30;2.10;;;17.90;87.00;;;;;;5097267;28;20421;-94
2022/07/18 04:29:36;;;;;;;5.20;2.47;;;18.00;87.10;;;;;;5114052;28;20274;-92
2022/07/18 04:32:02;;;;;;;3.20;2.37;;;18.10;86.80;;;;;;5115267;28;20183;-94
2022/07/18 04:34:27;;;;;;;4.10;1.93;;;18.20;86.60;;;;;;5114684;28;20511;-93
2022/07/18 04:36:53;;;;;;;3.00;1.70;;;18.20;86.10;;;;;;5117432;28;21075;-95
2022/07/18 04:39:19;;;;;;;6.53;1.93;;;18.30;85.90;;;;;;5114276;28;20582;-95
2022/07/18 04:41:45;;;;;;;2.87;2.40;;;18.40;85.70;;;;;;5114568;28;20684;-95
2022/07/18 04:44:11;;;;;;;5.00;2.00;;;18.50;85.60;;;;;;5120235;28;20183;-94
2022/07/18 04:46:36;;;;;;;2.90;1.40;;;18.50;85.40;;;;;;5116073;28;20207;-94
2022/07/18 04:49:02;;;;;;;2.87;1.33;;;18.60;85.00;;;;;;5114952;28;20266;-94
2022/07/18 04:51:28;;;;;;;3.23;1.40;;;18.70;84.90;;;;;;5113196;28;20349;-95
2022/07/18 04:53:56;;;;;;;1.63;1.53;;;18.80;85.30;;;;;;5109168;28;20184;-94
2022/07/18 04:56:26;;;;;;;1.50;1.40;;;18.90;86.00;;;;;;5102146;28;20227;-94
2022/07/18 04:58:52;;;;;;;2.63;2.43;;;18.90;86.30;;;;;;5102365;28;20432;-94
2022/07/18 05:01:17;;;;;;;2.50;1.60;;;19.00;86.30;;;;;;5096350;28;20460;-94
2022/07/18 05:03:43;;;;;;;7.93;1.80;;;19.10;86.50;;;;;;5104831;28;20195;-93
2022/07/18 05:06:09;;;;;;;2.97;1.50;;;19.10;86.60;;;;;;5101555;28;20520;-94
2022/07/18 05:08:35;;;;;;;1.87;1.30;;;19.20;86.60;;;;;;5109223;28;20719;-93
2022/07/18 05:11:01;;;;;;;2.70;1.33;;;19.30;86.70;;;;;;5099551;28;20256;-94
2022/07/18 05:13:27;;;;;;;4.83;2.00;;;19.40;86.60;;;;;;5095039;28;20476;-94
2022/07/18 05:15:53;;;;;;;2.50;1.47;;;19.50;86.50;;;;;;5094949;28;20196;-94
2022/07/18 05:18:18;;;;;;;10.00;2.30;;;19.60;86.70;;;;;;5095460;28;20492;-94
2022/07/18 05:20:44;;;;;;;2.30;1.73;;;19.70;86.50;;;;;;5104978;28;20213;-94
2022/07/18 05:23:13;;;;;;;7.63;1.70;;;19.80;86.30;;;;;;5113677;28;20440;-94
2022/07/18 05:25:38;;;;;;;3.17;1.80;;;19.80;86.40;;;;;;5117506;28;20190;-94
2022/07/18 05:28:05;;;;;;;2.40;1.60;;;20.00;86.70;;;;;;5113260;28;20544;-94
2022/07/18 05:30:30;;;;;;;2.13;1.33;;;20.10;86.10;;;;;;5112561;28;20193;-93
2022/07/18 05:32:56;;;;;;;1.77;1.30;;;20.20;86.00;;;;;;5120714;28;20484;-94
2022/07/18 05:35:22;;;;;;;1.10;1.00;;;20.20;86.20;;;;;;5114362;28;20709;-93
2022/07/18 05:37:48;;;;;;;2.60;1.77;;;20.30;86.20;;;;;;5102846;28;20248;-94
2022/07/18 05:40:15;;;;;;;1.63;1.20;;;20.40;86.50;;;;;;5103708;28;20481;-94
2022/07/18 05:42:41;;;;;;;1.83;1.50;;;20.50;86.80;;;;;;5100820;28;20797;-95
2022/07/18 05:45:08;;;;;;;1.97;1.40;;;20.60;86.40;;;;;;5094306;28;20423;-94
2022/07/18 05:47:34;;;;;;;1.70;1.40;;;20.70;86.10;;;;;;5103788;28;20444;-95
2022/07/18 05:49:59;;;;;;;1.97;1.60;;;20.80;85.80;;;;;;5093734;28;20421;-93
2022/07/18 05:52:25;;;;;;;3.40;1.47;;;20.90;85.50;;;;;;5114416;28;20474;-95
2022/07/18 05:54:51;;;;;;;4.33;1.33;;;21.00;85.10;;;;;;5106465;28;20194;-94
2022/07/18 05:57:17;;;;;;;2.20;1.50;;;21.10;85.30;;;;;;5096652;28;20239;-94
2022/07/18 05:59:47;;;;;;;3.23;1.60;;;21.20;85.00;;;;;;5102648;28;20189;-95
2022/07/18 06:02:14;;;;;;;4.77;1.67;;;21.20;84.00;;;;;;5116163;28;20231;-95
2022/07/18 06:04:39;;;;;;;2.90;1.60;;;21.30;84.30;;;;;;5115903;28;20460;-95
2022/07/18 06:07:05;;;;;;;1.30;1.20;;;21.40;82.60;;;;;;5115305;28;20467;-95
2022/07/18 06:09:31;;;;;;;4.63;1.50;;;21.50;82.10;;;;;;5112811;28;20213;-95
2022/07/18 06:11:59;;;;;;;2.03;1.50;;;21.60;81.80;;;;;;5105935;28;20239;-95
2022/07/18 06:14:30;;;;;;;2.57;1.73;;;21.70;81.60;;;;;;5108241;28;20184;-96
2022/07/18 06:16:56;;;;;;;6.50;1.50;;;21.80;81.50;;;;;;5113274;28;20491;-96
2022/07/18 06:19:22;;;;;;;2.20;1.60;;;21.80;81.00;;;;;;5109072;28;20451;-95
2022/07/18 06:21:48;;;;;;;1.73;1.63;;;21.90;81.20;;;;;;5102137;28;20241;-96
2022/07/18 06:24:14;;;;;;;1.70;1.10;;;22.00;81.20;;;;;;5101957;28;20279;-96
2022/07/18 06:26:39;;;;;;;4.63;1.93;;;22.10;80.20;;;;;;5097240;28;20456;-96
2022/07/18 06:29:05;;;;;;;2.90;2.00;;;22.20;79.80;;;;;;5111038;28;20201;-96
2022/07/18 06:31:31;;;;;;;2.60;1.40;;;22.30;79.20;;;;;;5095447;28;20645;-96
2022/07/18 06:33:57;;;;;;;9.30;1.87;;;22.40;79.60;;;;;;5099151;28;20228;-96
2022/07/18 06:36:25;;;;;;;2.33;1.50;;;22.50;79.80;;;;;;5116382;28;20200;-95
2022/07/18 06:38:51;;;;;;;1.50;1.40;;;22.50;78.90;;;;;;5114616;28;20316;-96
2022/07/18 06:41:20;;;;;;;1.40;1.30;;;22.70;78.10;;;;;;5112899;28;20468;-96
2022/07/18 06:43:46;;;;;;;1.50;1.40;;;22.80;77.90;;;;;;5110816;28;20512;-96
2022/07/18 06:46:12;;;;;;;2.77;1.40;;;22.90;76.70;;;;;;5110998;28;20459;-96
2022/07/18 06:48:38;;;;;;;2.20;1.60;;;22.90;76.90;;;;;;5104657;28;20215;-96
2022/07/18 06:51:05;;;;;;;2.53;1.40;;;23.10;75.80;;;;;;5094728;28;20506;-96
2022/07/18 06:53:31;;;;;;;117.43;55.90;;;23.10;74.80;;;;;;5098446;28;20460;-95
2022/07/18 06:55:57;;;;;;;34.10;21.30;;;23.20;73.70;;;;;;5106447;28;20515;-96
2022/07/18 06:58:23;;;;;;;1.83;1.73;;;23.30;74.20;;;;;;5105954;28;20567;-96
2022/07/18 07:00:50;;;;;;;1.23;0.90;;;23.40;74.00;;;;;;5110978;28;20679;-95
2022/07/18 07:03:16;;;;;;;2.93;1.60;;;23.50;74.00;;;;;;5109335;28;20457;-95
2022/07/18 07:05:42;;;;;;;2.83;1.37;;;23.60;73.80;;;;;;5106844;28;20459;-94
2022/07/18 07:08:08;;;;;;;1.70;1.50;;;23.60;73.50;;;;;;5105897;28;20529;-94
2022/07/18 07:10:33;;;;;;;3.30;1.70;;;23.70;72.80;;;;;;5106483;28;20206;-94
2022/07/18 07:12:59;;;;;;;1.20;1.00;;;23.80;73.00;;;;;;5096151;28;20313;-96
2022/07/18 07:15:25;;;;;;;1.13;1.03;;;23.90;72.20;;;;;;5103191;28;20217;-95
2022/07/18 07:17:51;;;;;;;1.60;1.07;;;24.00;71.70;;;;;;5102094;28;20730;-96
2022/07/18 07:20:20;;;;;;;2.10;1.40;;;24.10;70.50;;;;;;5103460;28;20189;-95
2022/07/18 07:22:51;;;;;;;1.50;1.40;;;24.10;70.50;;;;;;5103559;28;20457;-96
2022/07/18 07:25:19;;;;;;;6.93;1.47;;;24.20;70.50;;;;;;5111554;28;20527;-96
2022/07/18 07:27:45;;;;;;;2.17;1.37;;;24.30;71.80;;;;;;5104066;28;20450;-96
2022/07/18 07:30:12;;;;;;;14.53;7.40;;;24.40;69.30;;;;;;5100453;28;20433;-96
2022/07/18 07:32:41;;;;;;;42.67;24.50;;;24.50;69.10;;;;;;5123850;27;20459;-96
2022/07/18 07:35:10;;;;;;;2.73;1.57;;;24.60;69.70;;;;;;5098761;28;20670;-95
2022/07/18 07:37:37;;;;;;;0.73;0.70;;;24.70;69.10;;;;;;5102296;28;20516;-96
2022/07/18 07:40:03;;;;;;;1.40;0.90;;;24.70;68.10;;;;;;5106946;28;20961;-95
2022/07/18 07:42:29;;;;;;;1.60;0.90;;;24.80;67.70;;;;;;5108913;28;20466;-95
2022/07/18 07:44:55;;;;;;;2.70;0.97;;;24.90;67.20;;;;;;5106929;28;20428;-95
2022/07/18 07:47:21;;;;;;;1.20;1.10;;;24.90;66.50;;;;;;5105177;28;20254;-95
2022/07/18 07:49:47;;;;;;;2.13;1.17;;;25.00;66.80;;;;;;5111004;27;20427;-95
2022/07/18 07:52:14;;;;;;;1.00;0.90;;;25.00;67.30;;;;;;5107736;27;20496;-95
2022/07/18 07:54:40;;;;;;;1.33;1.17;;;25.10;67.20;;;;;;5097091;28;20202;-96
2022/07/18 07:57:06;;;;;;;1.20;1.00;;;25.20;67.00;;;;;;5099933;28;20487;-96
2022/07/18 07:59:32;;;;;;;2.50;1.20;;;25.30;67.60;;;;;;5106924;28;20437;-95
2022/07/18 08:01:59;;;;;;;1.30;1.10;;;25.30;67.20;;;;;;5104355;28;20203;-95
2022/07/18 08:04:25;;;;;;;0.90;0.90;;;25.40;66.80;;;;;;5106569;28;20187;-96
2022/07/18 08:06:50;;;;;;;1.90;1.00;;;25.50;66.80;;;;;;5107708;28;20460;-95
2022/07/18 08:09:16;;;;;;;1.60;0.87;;;25.60;66.50;;;;;;5106504;28;20471;-96
2022/07/18 08:11:42;;;;;;;1.77;1.17;;;25.60;67.10;;;;;;5099461;28;20724;-95
2022/07/18 08:14:08;;;;;;;1.90;1.10;;;25.70;67.30;;;;;;5103296;28;20654;-96
2022/07/18 08:16:34;;;;;;;1.20;1.10;;;25.80;66.50;;;;;;5107370;28;20204;-93
2022/07/18 08:18:59;;;;;;;2.20;1.20;;;25.90;66.00;;;;;;5101977;27;20427;-93
2022/07/18 08:21:28;;;;;;;2.23;1.30;;;25.90;65.60;;;;;;5099550;28;20302;-94
2022/07/18 08:23:54;;;;;;;1.80;1.20;;;26.00;67.90;;;;;;5093310;28;20195;-92
2022/07/18 08:26:20;;;;;;;1.60;1.07;;;26.10;64.60;;;;;;5105762;28;20451;-94
2022/07/18 08:28:46;;;;;;;1.70;1.07;;;26.10;66.60;;;;;;5108434;28;20233;-93
2022/07/18 08:31:11;;;;;;;2.50;1.20;;;26.20;65.10;;;;;;5109242;28;20220;-94
2022/07/18 08:33:37;;;;;;;1.10;0.90;;;26.40;65.30;;;;;;5092981;28;20437;-94
2022/07/18 08:36:03;;;;;;;3.47;1.30;;;26.50;67.10;;;;;;5109808;28;20183;-94
2022/07/18 08:38:29;;;;;;;2.83;0.87;;;26.60;65.60;;;;;;5101598;28;20192;-92
2022/07/18 08:40:56;;;;;;;2.70;1.00;;;26.80;64.70;;;;;;5083555;28;20478;-93
2022/07/18 08:43:24;;;;;;;210.83;102.83;;;26.90;63.70;;;;;;5092833;28;20707;-94
2022/07/18 08:45:55;;;;;;;80.63;48.50;;;26.90;63.60;;;;;;5104158;28;20436;-94
2022/07/18 08:48:22;;;;;;;4.27;3.87;;;27.10;64.80;;;;;;5098716;28;20472;-93
2022/07/18 08:50:48;;;;;;;2.00;1.33;;;27.20;65.10;;;;;;5098471;28;20440;-94
2022/07/18 08:53:15;;;;;;;1.73;1.00;;;27.30;64.30;;;;;;5106591;28;20463;-94
2022/07/18 08:55:42;;;;;;;3.80;1.00;;;27.40;63.50;;;;;;5103188;28;20435;-93
2022/07/18 08:58:09;;;;;;;4.03;1.43;;;27.50;63.80;;;;;;5108306;28;20483;-95
2022/07/18 09:00:35;;;;;;;1.83;1.13;;;27.60;63.10;;;;;;5101276;28;20863;-94
2022/07/18 09:03:03;;;;;;;1.00;1.00;;;27.70;63.50;;;;;;5106003;28;20452;-95
2022/07/18 09:05:30;;;;;;;2.20;1.23;;;27.80;64.10;;;;;;5106476;28;20629;-95
2022/07/18 09:08:19;;;;;;;2.00;1.33;;;28.00;65.20;;;;;;5100234;28;20471;-93
2022/07/18 09:10:51;;;;;;;2.97;0.90;;;28.10;64.30;;;;;;5097158;28;20428;-94
2022/07/18 09:13:19;;;;;;;1.87;1.00;;;28.20;64.50;;;;;;5105682;28;20456;-95
2022/07/18 09:15:58;;;;;;;1.17;1.07;;;28.20;63.50;;;;;;5106199;28;20944;-94
2022/07/18 09:18:42;;;;;;;1.17;1.00;;;28.30;63.30;;;;;;5096765;28;20470;-94
2022/07/18 09:21:11;;;;;;;0.80;0.80;;;28.50;63.40;;;;;;5101428;28;21211;-95
2022/07/18 09:23:39;;;;;;;1.43;1.33;;;28.60;64.10;;;;;;5105673;28;20433;-94
2022/07/18 09:26:05;;;;;;;1.20;1.00;;;28.60;62.10;;;;;;5113507;28;20430;-95
2022/07/18 09:28:51;;;;;;;1.20;0.97;;;28.80;61.70;;;;;;5110401;28;20519;-95
2022/07/18 09:31:24;;;;;;;1.30;1.13;;;28.80;63.10;;;;;;5103790;28;20447;-94
2022/07/18 09:33:58;;;;;;;1.20;1.07;;;28.80;61.30;;;;;;5108352;28;20763;-94
2022/07/18 09:36:25;;;;;;;1.40;0.93;;;28.80;61.10;;;;;;5109716;28;20507;-95
2022/07/18 09:38:51;;;;;;;0.93;0.90;;;28.90;61.40;;;;;;5110431;28;20430;-93
2022/07/18 09:41:23;;;;;;;1.17;1.07;;;28.90;61.20;;;;;;5108390;28;20439;-94
2022/07/18 09:43:49;;;;;;;2.00;1.20;;;29.00;62.80;;;;;;5099359;28;21019;-93
2022/07/18 09:46:14;;;;;;;1.17;1.00;;;29.00;61.80;;;;;;5105868;28;20446;-93
2022/07/18 09:48:40;;;;;;;3.27;1.30;;;29.10;63.20;;;;;;5108525;28;20176;-95
2022/07/18 09:51:07;;;;;;;1.73;1.27;;;29.20;63.30;;;;;;5102094;28;20188;-94
2022/07/18 09:53:35;;;;;;;1.20;1.10;;;29.30;64.40;;;;;;5098819;28;20174;-94
2022/07/18 09:56:02;;;;;;;1.47;1.30;;;29.30;63.30;;;;;;5096179;28;20439;-94
2022/07/18 09:58:30;;;;;;;2.00;1.27;;;29.40;62.80;;;;;;5096374;28;20479;-93
2022/07/18 10:00:58;;;;;;;2.20;1.40;;;29.40;59.70;;;;;;5128686;27;20508;-94
2022/07/18 10:03:24;;;;;;;1.33;1.23;;;29.40;59.70;;;;;;5108080;28;20429;-94
2022/07/18 10:05:54;;;;;;;0.93;0.93;;;29.50;59.60;;;;;;5111926;28;20477;-95
2022/07/18 10:08:26;;;;;;;1.30;0.93;;;29.40;58.60;;;;;;5102506;28;20474;-95
2022/07/18 10:10:56;;;;;;;1.07;0.97;;;29.40;59.20;;;;;;5102025;28;20438;-94
2022/07/18 10:13:23;;;;;;;1.20;1.10;;;29.40;60.50;;;;;;5103724;28;20496;-94
2022/07/18 10:15:50;;;;;;;1.23;1.03;;;29.40;62.10;;;;;;5101538;28;20440;-95
2022/07/18 10:18:19;;;;;;;1.50;1.10;;;29.40;59.80;;;;;;5113639;28;20534;-95
2022/07/18 10:21:10;;;;;;;2.10;0.93;;;29.50;59.50;;;;;;5099872;28;20442;-94
2022/07/18 10:23:41;;;;;;;1.10;1.00;;;29.50;59.60;;;;;;5109232;28;20439;-95
2022/07/18 10:26:13;;;;;;;1.30;1.00;;;29.60;59.70;;;;;;5109439;28;20466;-94
2022/07/18 10:29:00;;;;;;;1.13;1.03;;;29.60;59.60;;;;;;5101343;28;20531;-95
2022/07/18 10:31:30;;;;;;;1.13;1.03;;;29.60;57.70;;;;;;5093172;28;21025;-94
2022/07/18 10:34:09;;;;;;;1.30;1.10;;;29.60;57.60;;;;;;5107158;28;20523;-95
2022/07/18 10:36:40;;;;;;;2.27;1.23;;;29.60;57.80;;;;;;5100953;28;20468;-95
2022/07/18 10:39:20;;;;;;;1.97;1.10;;;29.60;57.80;;;;;;5112870;28;20427;-94
2022/07/18 10:41:51;;;;;;;1.53;1.10;;;29.60;58.00;;;;;;5106979;28;20476;-96
2022/07/18 10:44:29;;;;;;;0.83;0.83;;;29.60;57.50;;;;;;5109451;28;20500;-93
2022/07/18 10:47:28;;;;;;;1.00;0.90;;;29.60;58.00;;;;;;5099650;28;20456;-92
2022/07/18 10:49:54;;;;;;;1.00;0.90;;;29.70;57.10;;;;;;5102374;28;20483;-92
2022/07/18 10:52:26;;;;;;;1.53;0.97;;;29.70;57.30;;;;;;5102131;28;20841;-89
2022/07/18 10:55:08;;;;;;;1.63;1.13;;;29.70;56.70;;;;;;5105723;28;20439;-90
2022/07/18 10:57:36;;;;;;;2.77;1.10;;;29.70;55.50;;;;;;5096969;28;20479;-90
2022/07/18 11:00:08;;;;;;;1.10;1.00;;;29.70;56.30;;;;;;5109922;28;20549;-90
2022/07/18 11:02:38;;;;;;;2.83;1.33;;;29.70;55.60;;;;;;5102198;28;20974;-93
2022/07/18 11:05:24;;;;;;;2.60;1.03;;;29.70;56.10;;;;;;5091443;28;20420;-93
2022/07/18 11:07:58;;;;;;;4.10;1.97;;;29.80;55.70;;;;;;5094387;28;20474;-89
2022/07/18 11:10:55;;;;;;;2.63;1.10;;;29.80;56.00;;;;;;5098063;28;20437;-90
2022/07/18 11:13:28;;;;;;;1.13;1.00;;;29.90;58.60;;;;;;5100070;28;20509;-92
2022/07/18 11:16:02;;;;;;;1.60;1.27;;;30.00;59.50;;;;;;5108801;28;20438;-92
2022/07/18 11:18:31;;;;;;;1.33;1.20;;;30.00;60.70;;;;;;5100307;28;20553;-92
2022/07/18 11:20:57;;;;;;;2.20;0.90;;;30.10;59.60;;;;;;5097082;28;20439;-94
2022/07/18 11:23:26;;;;;;;0.90;0.90;;;30.10;60.40;;;;;;5103833;28;20421;-91
2022/07/18 11:25:56;;;;;;;2.20;0.97;;;30.20;59.20;;;;;;5107900;28;20423;-90
2022/07/18 11:28:22;;;;;;;1.17;0.90;;;30.20;56.40;;;;;;5105521;28;20460;-91
2022/07/18 11:31:06;;;;;;;1.07;1.00;;;30.30;56.50;;;;;;5101605;28;20456;-91
2022/07/18 11:33:35;;;;;;;2.83;1.23;;;30.40;57.30;;;;;;5103734;28;20438;-92
2022/07/18 11:36:11;;;;;;;3.40;1.20;;;30.40;58.50;;;;;;5102730;28;20445;-94
2022/07/18 11:38:48;;;;;;;1.33;1.00;;;30.50;56.80;;;;;;5097146;28;20499;-89
2022/07/18 11:41:14;;;;;;;1.43;1.20;;;30.50;55.90;;;;;;5108508;28;20520;-91
2022/07/18 11:43:40;;;;;;;1.10;1.00;;;30.50;56.60;;;;;;5110849;28;20432;-91
2022/07/18 11:46:08;;;;;;;0.70;0.70;;;30.50;60.30;;;;;;5102368;28;20451;-92
2022/07/18 11:48:36;;;;;;;3.83;1.20;;;30.40;58.90;;;;;;5104251;28;20437;-92
2022/07/18 11:51:08;;;;;;;2.50;1.70;;;30.40;57.60;;;;;;5101557;28;20450;-92
2022/07/18 11:53:33;;;;;;;1.77;1.20;;;30.40;55.80;;;;;;5098252;28;20497;-94
2022/07/18 11:56:04;;;;;;;1.20;1.10;;;30.40;55.50;;;;;;5097325;28;21004;-92
2022/07/18 11:58:38;;;;;;;1.20;0.97;;;30.40;56.40;;;;;;5100651;28;20577;-94
2022/07/18 12:01:05;;;;;;;1.10;1.00;;;30.40;55.50;;;;;;5104836;28;20427;-92
2022/07/18 12:03:33;;;;;;;1.17;1.03;;;30.40;56.20;;;;;;5108805;27;20428;-93
2022/07/18 12:06:09;;;;;;;1.90;1.50;;;30.40;55.80;;;;;;5125958;27;20972;-92
2022/07/18 12:08:35;;;;;;;1.20;1.10;;;30.50;58.70;;;;;;5104162;28;20461;-91
2022/07/18 12:11:17;;;;;;;1.03;0.83;;;30.50;59.70;;;;;;5100381;28;20456;-94
2022/07/18 12:14:02;;;;;;;2.50;1.63;;;30.50;58.60;;;;;;5108819;27;20444;-94
2022/07/18 12:16:46;;;;;;;24.57;18.57;;;30.50;58.70;;;;;;5106649;28;20455;-92
2022/07/18 12:19:15;;;;;;;13.43;10.67;;;30.70;57.90;;;;;;5099056;28;20509;-94
2022/07/18 12:22:05;;;;;;;1.30;1.20;;;30.70;57.30;;;;;;5100117;28;20480;-94
2022/07/18 12:24:53;;;;;;;1.67;1.30;;;30.80;58.20;;;;;;5103706;28;20441;-95
2022/07/18 12:27:34;;;;;;;1.30;1.10;;;30.70;60.90;;;;;;5102191;28;20546;-93
2022/07/18 12:30:03;;;;;;;0.80;0.80;;;30.60;58.10;;;;;;5114757;28;20432;-92
2022/07/18 12:32:44;;;;;;;2.05;1.20;;;30.60;56.10;;;;;;5098962;28;20499;-94
2022/07/18 12:35:19;;;;;;;2.27;1.20;;;30.80;56.20;;;;;;5110613;28;20201;-93
2022/07/18 12:38:01;;;;;;;9.13;8.20;;;30.90;55.90;;;;;;5109824;28;20462;-94
2022/07/18 12:40:44;;;;;;;5.57;5.07;;;30.90;55.60;;;;;;5097536;28;20456;-94
2022/07/18 12:43:21;;;;;;;4.60;3.47;;;30.90;55.60;;;;;;5102926;27;21660;-94
2022/07/18 12:45:47;;;;;;;1.40;1.20;;;30.80;55.50;;;;;;5095769;28;20845;-93
2022/07/18 12:48:13;;;;;;;1.80;1.20;;;30.80;55.80;;;;;;5110785;28;20511;-94
2022/07/18 12:50:40;;;;;;;3.70;1.17;;;30.70;54.80;;;;;;5103077;28;20202;-94
2022/07/18 12:53:07;;;;;;;1.80;1.27;;;30.70;55.10;;;;;;5095733;28;20447;-93